createdAt,value
2022-12-08T00:01:35.138Z,25.40
2022-12-08T00:04:04.433Z,26.85
2022-12-08T00:07:02.344Z,23.15
2022-12-08T00:09:40.064Z,21.45
2022-12-08T00:12:10.326Z,23.65
2022-12-08T00:14:43.213Z,20.45
2022-12-08T00:17:13.352Z,20.83
2022-12-08T00:19:42.388Z,21.40
2022-12-08T00:22:11.895Z,20.15
2022-12-08T00:24:41.093Z,23.30
2022-12-08T00:27:10.368Z,25.23
2022-12-08T00:29:38.399Z,19.75
2022-12-08T00:32:07.031Z,20.77
2022-12-08T00:34:34.884Z,25.13
2022-12-08T00:37:02.645Z,24.02
2022-12-08T00:39:30.363Z,21.00
2022-12-08T00:42:13.277Z,24.08
2022-12-08T00:44:44.027Z,22.02
2022-12-08T00:47:13.220Z,21.67
2022-12-08T00:49:41.566Z,21.08
2022-12-08T00:52:09.583Z,20.33
2022-12-08T00:54:37.341Z,20.63
2022-12-08T00:57:07.886Z,20.70
2022-12-08T00:59:35.728Z,21.95
2022-12-08T01:02:03.399Z,21.25
2022-12-08T01:04:31.140Z,20.83
2022-12-08T01:06:58.822Z,20.08
2022-12-08T01:09:26.531Z,18.10
2022-12-08T01:11:54.185Z,20.42
2022-12-08T01:14:21.831Z,17.05
2022-12-08T01:16:49.687Z,16.75
2022-12-08T01:19:18.136Z,16.02
2022-12-08T01:21:46.653Z,17.75
2022-12-08T01:24:17.792Z,17.65
2022-12-08T01:26:48.037Z,16.27
2022-12-08T01:29:16.498Z,16.65
2022-12-08T01:31:44.228Z,16.23
2022-12-08T01:34:12.918Z,17.02
2022-12-08T01:36:41.158Z,16.95
2022-12-08T01:39:15.728Z,15.90
2022-12-08T01:41:45.490Z,17.63
2022-12-08T01:44:14.125Z,17.83
2022-12-08T01:46:43.988Z,15.63
2022-12-08T01:49:14.081Z,16.48
2022-12-08T01:51:55.268Z,15.18
2022-12-08T01:54:26.001Z,18.95
2022-12-08T01:57:12.581Z,16.88
2022-12-08T01:59:47.111Z,15.80
2022-12-08T02:02:14.732Z,19.48
2022-12-08T02:04:42.518Z,18.95
2022-12-08T02:07:12.656Z,17.00
2022-12-08T02:09:41.794Z,19.15
2022-12-08T02:12:11.738Z,19.05
2022-12-08T02:14:41.645Z,16.52
2022-12-08T02:17:30.607Z,17.60
2022-12-08T02:20:20.050Z,15.77
2022-12-08T02:23:15.767Z,16.63
2022-12-08T02:26:09.827Z,17.63
2022-12-08T02:28:59.138Z,18.58
2022-12-08T02:31:36.162Z,18.52
2022-12-08T02:34:09.793Z,16.35
2022-12-08T02:36:43.560Z,17.02
2022-12-08T02:39:29.313Z,17.85
2022-12-08T02:42:08.706Z,15.55
2022-12-08T02:44:36.506Z,15.48
2022-12-08T02:47:13.480Z,15.80
2022-12-08T02:49:41.737Z,17.05
2022-12-08T02:52:12.609Z,16.10
2022-12-08T02:54:51.907Z,15.45
2022-12-08T02:57:34.578Z,16.15
2022-12-08T03:00:03.269Z,15.38
2022-12-08T03:02:44.064Z,15.35
2022-12-08T03:05:51.931Z,15.82
2022-12-08T03:08:55.058Z,16.48
2022-12-08T03:11:33.366Z,16.70
2022-12-08T03:14:03.762Z,16.17
2022-12-08T03:16:37.212Z,18.38
2022-12-08T03:19:22.513Z,15.93
2022-12-08T03:22:03.014Z,15.60
2022-12-08T03:24:38.146Z,15.93
2022-12-08T03:27:12.503Z,15.48
2022-12-08T03:29:41.823Z,16.98
2022-12-08T03:32:20.121Z,16.58
2022-12-08T03:34:50.193Z,16.90
2022-12-08T03:37:18.189Z,17.33
2022-12-08T03:39:47.303Z,16.65
2022-12-08T03:42:15.075Z,17.60
2022-12-08T03:44:43.151Z,16.42
2022-12-08T03:47:10.776Z,17.08
2022-12-08T03:49:38.699Z,17.40
2022-12-08T03:52:06.447Z,15.18
2022-12-08T03:54:34.426Z,18.58
2022-12-08T03:57:02.162Z,16.85
2022-12-08T03:59:29.737Z,16.38
2022-12-08T04:01:57.370Z,16.50
2022-12-08T04:04:25.110Z,16.13
2022-12-08T04:06:52.931Z,15.60
2022-12-08T04:09:20.598Z,18.23
2022-12-08T04:11:48.525Z,15.40
2022-12-08T04:14:16.130Z,16.95
2022-12-08T04:16:43.753Z,18.50
2022-12-08T04:19:11.404Z,15.82
2022-12-08T04:21:39.522Z,16.20
2022-12-08T04:24:07.392Z,16.23
2022-12-08T04:26:35.105Z,17.05
2022-12-08T04:29:02.866Z,16.63
2022-12-08T04:31:30.848Z,17.85
2022-12-08T04:33:58.945Z,17.20
2022-12-08T04:36:26.828Z,18.25
2022-12-08T04:38:54.529Z,16.40
2022-12-08T04:41:22.241Z,18.33
2022-12-08T04:43:51.834Z,17.08
2022-12-08T04:46:19.528Z,16.42
2022-12-08T04:48:47.498Z,15.73
2022-12-08T04:51:17.528Z,15.90
2022-12-08T04:53:46.891Z,19.20
2022-12-08T04:56:16.430Z,16.80
2022-12-08T04:58:44.622Z,18.70
2022-12-08T05:01:13.400Z,18.98
2022-12-08T05:03:41.456Z,16.33
2022-12-08T05:06:12.668Z,16.17
2022-12-08T05:08:41.307Z,17.40
2022-12-08T05:11:10.790Z,19.15
2022-12-08T05:13:38.577Z,17.63
2022-12-08T05:16:14.821Z,18.33
2022-12-08T05:18:43.730Z,19.75
2022-12-08T05:21:12.838Z,16.40
2022-12-08T05:23:40.506Z,17.70
2022-12-08T05:26:08.496Z,20.63
2022-12-08T05:28:44.047Z,18.20
2022-12-08T05:31:14.545Z,19.50
2022-12-08T05:33:43.214Z,19.50
2022-12-08T05:36:14.022Z,20.52
2022-12-08T05:38:42.562Z,19.10
2022-12-08T05:41:17.014Z,20.50
2022-12-08T05:43:46.573Z,21.55
2022-12-08T05:46:14.810Z,20.15
2022-12-08T05:48:42.503Z,21.45
2022-12-08T05:51:21.912Z,21.05
2022-12-08T05:53:52.299Z,22.17
2022-12-08T05:56:21.447Z,23.20
2022-12-08T05:58:49.853Z,23.48
2022-12-08T06:01:27.790Z,22.45
2022-12-08T06:03:57.554Z,22.27
2022-12-08T06:06:25.646Z,22.77
2022-12-08T06:08:53.639Z,25.98
2022-12-08T06:11:26.067Z,25.55
2022-12-08T06:13:54.854Z,24.08
2022-12-08T06:16:23.335Z,24.25
2022-12-08T06:18:51.152Z,26.02
2022-12-08T06:21:20.078Z,23.10
2022-12-08T06:23:49.831Z,23.00
2022-12-08T06:26:18.402Z,22.42
2022-12-08T06:28:46.492Z,22.50
2022-12-08T06:31:23.982Z,19.08
2022-12-08T06:33:53.350Z,21.83
2022-12-08T06:36:23.803Z,21.20
2022-12-08T06:38:51.698Z,22.60
2022-12-08T06:41:22.460Z,23.50
2022-12-08T06:43:50.452Z,21.50
2022-12-08T06:46:20.022Z,22.33
2022-12-08T06:48:48.996Z,19.83
2022-12-08T06:51:24.255Z,19.75
2022-12-08T06:53:52.120Z,19.58
2022-12-08T06:56:20.618Z,19.67
2022-12-08T06:58:52.569Z,22.65
2022-12-08T07:01:20.943Z,22.30
2022-12-08T07:03:50.331Z,21.60
2022-12-08T07:06:24.022Z,19.95
2022-12-08T07:08:51.756Z,22.95
2022-12-08T07:11:21.871Z,20.92
2022-12-08T07:13:51.295Z,21.38
2022-12-08T07:16:19.103Z,21.02
2022-12-08T07:18:46.879Z,25.27
2022-12-08T07:21:15.262Z,24.75
2022-12-08T07:23:46.209Z,28.92
2022-12-08T07:26:14.090Z,30.42
2022-12-08T07:28:42.950Z,28.20
2022-12-08T07:31:38.505Z,27.00
2022-12-08T07:34:06.261Z,26.15
2022-12-08T07:36:34.144Z,24.05
2022-12-08T07:39:01.711Z,27.55
2022-12-08T07:41:29.820Z,26.58
2022-12-08T07:43:57.694Z,25.13
2022-12-08T07:46:26.849Z,27.48
2022-12-08T07:48:55.561Z,28.17
2022-12-08T07:51:24.994Z,25.30
2022-12-08T07:53:54.847Z,25.83
2022-12-08T07:56:23.715Z,26.80
2022-12-08T07:58:51.748Z,27.17
2022-12-08T08:01:30.984Z,24.52
2022-12-08T08:04:04.872Z,30.55
2022-12-08T08:06:34.996Z,25.63
2022-12-08T08:09:02.840Z,24.58
2022-12-08T08:11:35.121Z,30.20
2022-12-08T08:14:03.589Z,28.02
2022-12-08T08:16:36.659Z,28.92
2022-12-08T08:19:06.230Z,27.75
2022-12-08T08:21:45.596Z,30.77
2022-12-08T08:24:14.846Z,29.15
2022-12-08T08:26:42.946Z,32.40
2022-12-08T08:29:10.667Z,24.08
2022-12-08T08:31:38.541Z,27.92
2022-12-08T08:34:06.727Z,25.45
2022-12-08T08:36:40.122Z,24.30
2022-12-08T08:39:07.862Z,25.98
2022-12-08T08:41:35.616Z,21.48
2022-12-08T08:44:03.636Z,22.42
2022-12-08T08:46:32.422Z,26.65
2022-12-08T08:49:01.250Z,26.42
2022-12-08T08:51:28.913Z,28.23
2022-12-08T08:53:57.317Z,25.58
2022-12-08T08:56:25.501Z,24.88
2022-12-08T08:58:53.832Z,25.63
2022-12-08T09:01:25.262Z,25.20
2022-12-08T09:03:58.611Z,27.73
2022-12-08T09:06:28.417Z,25.27
2022-12-08T09:08:56.824Z,28.00
2022-12-08T09:11:24.540Z,108.88
2022-12-08T09:13:53.843Z,120.60
2022-12-08T09:16:23.064Z,72.47
2022-12-08T09:18:50.903Z,60.35
2022-12-08T09:21:24.633Z,65.32
2022-12-08T09:23:58.455Z,61.30
2022-12-08T09:26:28.006Z,50.38
2022-12-08T09:28:56.684Z,47.05
2022-12-08T09:31:25.635Z,44.50
2022-12-08T09:33:54.197Z,41.80
2022-12-08T09:36:22.272Z,38.92
2022-12-08T09:38:51.232Z,35.75
2022-12-08T09:41:48.493Z,34.83
2022-12-08T09:44:36.037Z,31.17
2022-12-08T09:47:12.122Z,32.60
2022-12-08T09:49:45.894Z,38.25
2022-12-08T09:52:24.551Z,54.25
2022-12-08T09:54:52.483Z,54.92
2022-12-08T09:57:25.067Z,60.85
2022-12-08T10:00:01.941Z,42.72
2022-12-08T10:02:32.880Z,38.22
2022-12-08T10:05:00.820Z,32.75
2022-12-08T10:07:49.976Z,30.80
2022-12-08T10:10:42.671Z,28.23
2022-12-08T10:13:29.711Z,30.00
2022-12-08T10:16:29.529Z,29.23
2022-12-08T10:19:18.893Z,31.33
2022-12-08T10:21:48.296Z,28.70
2022-12-08T10:24:23.702Z,29.70
2022-12-08T10:26:55.024Z,27.00
2022-12-08T10:29:22.725Z,24.33
2022-12-08T10:31:50.311Z,27.45
2022-12-08T10:34:20.159Z,29.00
2022-12-08T10:36:56.392Z,29.95
2022-12-08T10:39:44.078Z,30.63
2022-12-08T10:42:14.729Z,28.13
2022-12-08T10:44:58.316Z,31.67
2022-12-08T10:47:29.001Z,30.13
2022-12-08T10:50:20.655Z,32.20
2022-12-08T10:52:58.898Z,32.47
2022-12-08T10:55:28.930Z,30.48
2022-12-08T10:57:56.807Z,30.77
2022-12-08T11:00:27.589Z,30.75
2022-12-08T11:03:05.208Z,28.92
2022-12-08T11:05:35.963Z,29.52
2022-12-08T11:08:06.209Z,26.92
2022-12-08T11:10:45.211Z,28.55
2022-12-08T11:13:26.575Z,29.67
2022-12-08T11:15:57.134Z,27.65
2022-12-08T11:18:38.933Z,30.17
2022-12-08T11:21:12.438Z,30.23
2022-12-08T11:23:42.396Z,26.65
2022-12-08T11:26:28.085Z,25.23
2022-12-08T11:28:57.121Z,32.33
2022-12-08T11:31:34.857Z,30.98
2022-12-08T11:34:03.595Z,36.28
2022-12-08T11:36:35.647Z,34.72
2022-12-08T11:39:05.876Z,35.38
2022-12-08T11:41:42.114Z,33.30
2022-12-08T11:44:16.324Z,30.45
2022-12-08T11:47:09.026Z,33.80
2022-12-08T11:49:40.397Z,31.98
2022-12-08T11:52:19.353Z,35.42
2022-12-08T11:55:16.245Z,32.97
2022-12-08T11:57:45.693Z,30.70
2022-12-08T12:00:16.942Z,32.55
2022-12-08T12:02:49.044Z,34.28
2022-12-08T12:06:08.692Z,33.42
2022-12-08T12:08:47.659Z,31.40
2022-12-08T12:12:03.328Z,36.13
2022-12-08T12:14:43.426Z,30.90
2022-12-08T12:17:38.390Z,31.27
2022-12-08T12:20:16.179Z,31.23
2022-12-08T12:22:48.684Z,41.17
2022-12-08T12:25:23.811Z,38.35
2022-12-08T12:27:57.660Z,37.72
2022-12-08T12:30:28.137Z,36.80
2022-12-08T12:32:59.150Z,44.70
2022-12-08T12:35:36.503Z,42.22
2022-12-08T12:38:30.876Z,136.95
2022-12-08T12:41:02.690Z,125.88
2022-12-08T12:43:36.312Z,95.65
2022-12-08T12:46:37.081Z,68.20
2022-12-08T12:49:38.814Z,62.08
2022-12-08T12:52:15.534Z,59.70
2022-12-08T12:54:45.055Z,60.72
2022-12-08T12:57:12.940Z,69.78
2022-12-08T12:59:47.841Z,64.13
2022-12-08T13:02:18.373Z,55.75
2022-12-08T13:05:08.678Z,48.40
2022-12-08T13:07:45.416Z,43.70
2022-12-08T13:10:32.330Z,41.50
2022-12-08T13:13:03.295Z,36.67
2022-12-08T13:15:40.665Z,38.25
2022-12-08T13:21:11.482Z,33.88
2022-12-08T13:23:39.039Z,35.55
2022-12-08T13:26:14.565Z,34.35
2022-12-08T13:29:04.103Z,34.40
2022-12-08T13:31:50.049Z,34.40
2022-12-08T13:34:42.208Z,37.67
2022-12-08T13:37:15.664Z,37.28
2022-12-08T13:39:53.762Z,35.03
2022-12-08T13:42:36.062Z,32.10
2022-12-08T13:45:25.528Z,35.22
2022-12-08T13:48:33.186Z,34.60
2022-12-08T13:59:37.174Z,32.97
2022-12-08T14:02:34.668Z,40.22
2022-12-08T14:05:30.093Z,51.65
2022-12-08T14:07:56.610Z,57.88
2022-12-08T14:10:32.185Z,42.28
2022-12-08T14:13:04.283Z,44.75
2022-12-08T14:15:38.380Z,45.03
2022-12-08T14:18:22.953Z,42.42
2022-12-08T14:21:20.658Z,39.17
2022-12-08T14:26:16.408Z,37.45
2022-12-08T14:28:45.292Z,32.20
2022-12-08T14:31:14.840Z,33.28
2022-12-08T14:33:43.284Z,30.42
2022-12-08T14:36:12.434Z,31.65
2022-12-08T14:38:40.264Z,31.63
2022-12-08T14:41:10.157Z,35.72
2022-12-08T14:43:37.939Z,34.10
2022-12-08T14:46:23.260Z,34.70
2022-12-08T14:48:51.345Z,31.85
2022-12-08T14:51:20.795Z,29.58
2022-12-08T14:54:01.282Z,31.00
2022-12-08T14:56:38.648Z,31.10
2022-12-08T14:59:32.645Z,28.33
2022-12-08T15:02:27.220Z,30.73
2022-12-08T15:05:00.620Z,29.02
2022-12-08T15:07:46.947Z,35.63
2022-12-08T15:10:17.680Z,46.03
2022-12-08T15:13:21.068Z,51.40
2022-12-08T15:15:57.405Z,50.65
2022-12-08T15:18:37.744Z,41.42
2022-12-08T15:21:09.197Z,37.85
2022-12-08T15:23:44.932Z,41.25
2022-12-08T15:26:24.778Z,36.15
2022-12-08T15:28:54.169Z,35.90
2022-12-08T15:31:22.119Z,35.30
2022-12-08T15:33:49.804Z,38.50
2022-12-08T15:36:17.453Z,34.65
2022-12-08T15:38:45.320Z,31.73
2022-12-08T15:41:15.161Z,38.70
2022-12-08T15:43:43.061Z,39.25
2022-12-08T15:46:11.976Z,34.95
2022-12-08T15:48:39.698Z,33.72
2022-12-08T15:51:07.759Z,34.38
2022-12-08T15:53:35.648Z,29.60
2022-12-08T15:58:56.590Z,28.52
2022-12-08T16:01:25.968Z,28.83
2022-12-08T16:09:38.723Z,30.10
2022-12-08T16:13:06.935Z,30.60
2022-12-08T16:15:53.016Z,28.90
2022-12-08T16:18:17.607Z,27.83
2022-12-08T16:23:42.856Z,29.02
2022-12-08T16:26:28.387Z,27.48
2022-12-08T16:29:05.515Z,27.70
2022-12-08T16:31:34.128Z,26.27
2022-12-08T16:34:01.900Z,29.38
2022-12-08T16:36:29.701Z,29.67
2022-12-08T16:38:57.678Z,28.55
2022-12-08T16:41:43.914Z,28.88
2022-12-08T16:44:11.645Z,27.25
2022-12-08T16:46:39.612Z,29.92
2022-12-08T16:49:09.521Z,28.45
2022-12-08T16:51:37.139Z,27.38
2022-12-08T16:54:05.149Z,25.38
2022-12-08T16:56:33.765Z,26.02
2022-12-08T16:59:02.463Z,22.90
2022-12-08T17:01:30.673Z,28.75
2022-12-08T17:04:29.790Z,24.92
2022-12-08T17:06:46.569Z,23.00
2022-12-08T17:09:14.325Z,22.73
2022-12-08T17:11:43.752Z,22.42
2022-12-08T17:14:13.022Z,23.63
2022-12-08T17:16:41.477Z,25.30
2022-12-08T17:19:09.688Z,21.75
2022-12-08T17:21:37.404Z,23.75
2022-12-08T17:24:05.728Z,23.80
2022-12-08T17:26:33.473Z,23.98
2022-12-08T17:29:02.543Z,23.80
2022-12-08T17:31:32.378Z,27.13
2022-12-08T17:34:05.898Z,25.42
2022-12-08T17:36:33.897Z,25.05
2022-12-08T17:39:02.496Z,24.30
2022-12-08T17:41:30.877Z,25.42
2022-12-08T17:43:58.527Z,22.63
2022-12-08T17:46:26.422Z,25.20
2022-12-08T17:48:54.509Z,27.50
2022-12-08T17:51:22.447Z,23.10
2022-12-08T17:53:50.113Z,23.95
2022-12-08T17:56:20.538Z,23.42
2022-12-08T17:58:52.925Z,26.13
2022-12-08T18:01:23.608Z,26.80
2022-12-08T18:03:52.052Z,24.17
2022-12-08T18:06:20.157Z,24.52
2022-12-08T18:08:47.956Z,24.73
2022-12-08T18:11:19.101Z,30.70
2022-12-08T18:13:50.449Z,28.58
2022-12-08T18:16:21.154Z,28.63
2022-12-08T18:18:50.269Z,27.40
2022-12-08T18:21:23.358Z,25.27
2022-12-08T18:23:51.833Z,27.23
2022-12-08T18:26:20.172Z,27.58
2022-12-08T18:28:48.719Z,31.52
2022-12-08T18:31:19.556Z,36.17
2022-12-08T18:33:48.414Z,36.15
2022-12-08T18:36:21.119Z,37.30
2022-12-08T18:38:49.766Z,31.83
2022-12-08T18:41:30.834Z,30.52
2022-12-08T18:43:58.628Z,29.45
2022-12-08T18:46:26.566Z,31.00
2022-12-08T18:48:54.388Z,26.48
2022-12-08T18:51:24.400Z,26.02
2022-12-08T18:53:52.705Z,28.15
2022-12-08T18:56:27.049Z,25.52
2022-12-08T18:59:03.155Z,26.58
2022-12-08T19:01:33.509Z,24.50
2022-12-08T19:06:52.121Z,27.95
2022-12-08T19:09:20.010Z,25.77
2022-12-08T19:11:48.211Z,26.35
2022-12-08T19:14:15.860Z,24.73
2022-12-08T19:16:43.481Z,31.13
2022-12-08T19:19:11.230Z,31.02
2022-12-08T19:21:44.603Z,29.90
2022-12-08T19:24:13.989Z,28.02
2022-12-08T19:26:42.244Z,25.48
2022-12-08T19:29:10.063Z,28.48
2022-12-08T19:31:38.044Z,30.92
2022-12-08T19:34:06.866Z,29.20
2022-12-08T19:36:37.906Z,28.45
2022-12-08T19:39:25.263Z,28.17
2022-12-08T19:42:11.512Z,32.17
2022-12-08T19:44:54.360Z,31.00
2022-12-08T19:47:27.996Z,29.60
2022-12-08T19:50:16.227Z,27.27
2022-12-08T19:52:45.011Z,32.03
2022-12-08T19:55:13.731Z,34.33
2022-12-08T19:57:41.529Z,35.58
2022-12-08T20:00:11.209Z,38.40
2022-12-08T20:02:39.213Z,39.00
2022-12-08T20:05:08.186Z,34.95
2022-12-08T20:07:37.170Z,37.38
2022-12-08T20:10:07.959Z,38.10
2022-12-08T20:12:35.848Z,38.00
2022-12-08T20:15:04.009Z,33.97
2022-12-08T20:17:31.939Z,32.85
2022-12-08T20:20:03.867Z,32.65
2022-12-08T20:22:34.529Z,30.20
2022-12-08T20:25:02.949Z,32.20
2022-12-08T20:27:30.643Z,31.40
2022-12-08T20:29:58.394Z,32.13
2022-12-08T20:32:26.108Z,32.05
2022-12-08T20:34:54.230Z,30.98
2022-12-08T20:37:21.773Z,33.33
2022-12-08T20:39:49.628Z,30.30
2022-12-08T20:42:19.377Z,30.55
2022-12-08T20:44:47.052Z,36.95
2022-12-08T20:47:15.059Z,43.72
2022-12-08T20:49:42.855Z,44.55
2022-12-08T20:52:10.790Z,37.40
2022-12-08T20:54:38.878Z,33.72
2022-12-08T20:57:06.973Z,28.33
2022-12-08T20:59:34.611Z,23.63
2022-12-08T21:02:02.664Z,21.52
2022-12-08T21:04:30.682Z,20.63
2022-12-08T21:06:59.011Z,21.10
2022-12-08T21:09:26.922Z,20.58
2022-12-08T21:11:55.222Z,18.98
2022-12-08T21:14:23.028Z,17.92
2022-12-08T21:16:51.139Z,16.90
2022-12-08T21:19:20.584Z,16.85
2022-12-08T21:21:50.816Z,15.55
2022-12-08T21:24:19.376Z,16.08
2022-12-08T21:26:47.171Z,15.30
2022-12-08T21:29:14.916Z,17.83
2022-12-08T21:31:43.354Z,15.15
2022-12-08T21:34:11.498Z,15.20
2022-12-08T21:36:39.436Z,14.55
2022-12-08T21:39:13.175Z,11.90
2022-12-08T21:41:59.613Z,13.23
2022-12-08T21:44:27.508Z,11.77
2022-12-08T21:46:55.367Z,10.80
2022-12-08T21:49:24.411Z,15.07
2022-12-08T21:51:52.233Z,11.07
2022-12-08T21:54:20.060Z,13.45
2022-12-08T21:56:49.381Z,10.77
2022-12-08T21:59:18.263Z,9.10
2022-12-08T22:01:46.239Z,11.10
2022-12-08T22:04:18.268Z,11.73
2022-12-08T22:06:46.303Z,9.77
2022-12-08T22:09:15.471Z,10.43
2022-12-08T22:11:44.480Z,10.48
2022-12-08T22:14:15.004Z,12.77
2022-12-08T22:16:43.974Z,13.20
2022-12-08T22:19:12.671Z,10.27
2022-12-08T22:21:40.819Z,10.80
2022-12-08T22:24:09.046Z,9.52
2022-12-08T22:26:37.207Z,13.27
2022-12-08T22:29:04.929Z,13.10
2022-12-08T22:31:32.850Z,11.18
2022-12-08T22:34:00.823Z,12.45
2022-12-08T22:36:28.502Z,12.15
2022-12-08T22:38:57.138Z,13.02
2022-12-08T22:41:24.936Z,12.30
2022-12-08T22:43:52.662Z,10.55
2022-12-08T22:46:25.674Z,9.13
2022-12-08T22:48:54.570Z,11.68
2022-12-08T22:51:22.450Z,9.82
2022-12-08T22:53:50.824Z,10.45
2022-12-08T22:56:20.696Z,9.57
2022-12-08T22:58:48.630Z,13.35
2022-12-08T23:01:32.775Z,11.10
2022-12-08T23:04:01.565Z,8.70
2022-12-08T23:06:30.501Z,10.48
2022-12-08T23:08:59.441Z,9.43
2022-12-08T23:11:30.306Z,9.60
2022-12-08T23:14:02.697Z,9.50
2022-12-08T23:16:30.773Z,10.88
2022-12-08T23:18:59.161Z,12.75
2022-12-08T23:21:27.061Z,12.18
2022-12-08T23:23:54.768Z,10.20
2022-12-08T23:26:28.128Z,11.25
2022-12-08T23:28:56.926Z,11.45
2022-12-08T23:31:25.885Z,12.10
2022-12-08T23:33:54.708Z,10.18
2022-12-08T23:36:26.456Z,11.45
2022-12-08T23:38:56.051Z,10.45
2022-12-08T23:41:24.048Z,10.95
2022-12-08T23:43:52.845Z,10.18
2022-12-08T23:46:22.590Z,10.30
2022-12-08T23:48:51.779Z,9.70
2022-12-08T23:51:20.062Z,12.05
2022-12-08T23:53:48.247Z,13.13
2022-12-08T23:56:17.928Z,13.60
2022-12-08T23:58:46.503Z,18.58
